sensor_id;sensor_type;location;lat;lon;timestamp;temperature;humidity
18317;DHT22;9284;52.298;21.164;2022-08-19T03:15:54;18.50;99.90
18317;DHT22;9284;52.298;21.164;2022-08-19T03:18:22;18.50;99.90
18317;DHT22;9284;52.298;21.164;2022-08-19T03:20:52;18.50;99.90
18317;DHT22;9284;52.298;21.164;2022-08-19T03:23:22;18.60;99.90
18317;DHT22;9284;52.298;21.164;2022-08-19T03:25:51;18.50;99.90
18317;DHT22;9284;52.298;21.164;2022-08-19T03:28:40;18.60;99.90
18317;DHT22;9284;52.298;21.164;2022-08-19T03:31:20;18.50;99.90
18317;DHT22;9284;52.298;21.164;2022-08-19T03:34:10;18.60;99.90
18317;DHT22;9284;52.298;21.164;2022-08-19T03:36:39;18.60;99.90
18317;DHT22;9284;52.298;21.164;2022-08-19T03:39:07;18.70;99.90
18317;DHT22;9284;52.298;21.164;2022-08-19T03:41:38;18.60;99.90
18317;DHT22;9284;52.298;21.164;2022-08-19T03:44:12;18.60;99.90
18317;DHT22;9284;52.298;21.164;2022-08-19T03:46:47;18.70;99.90
18317;DHT22;9284;52.298;21.164;2022-08-19T03:49:15;18.70;99.90
18317;DHT22;9284;52.298;21.164;2022-08-19T03:51:46;18.80;99.90
18317;DHT22;9284;52.298;21.164;2022-08-19T03:54:17;18.80;94.30
18317;DHT22;9284;52.298;21.164;2022-08-19T03:56:47;18.90;60.40
18317;DHT22;9284;52.298;21.164;2022-08-19T03:59:18;18.90;1.00
18317;DHT22;9284;52.298;21.164;2022-08-19T04:01:48;19.00;1.00
18317;DHT22;9284;52.298;21.164;2022-08-19T04:04:16;19.00;1.00
18317;DHT22;9284;52.298;21.164;2022-08-19T04:06:45;19.00;1.00
18317;DHT22;9284;52.298;21.164;2022-08-19T04:09:15;18.90;1.00
18317;DHT22;9284;52.298;21.164;2022-08-19T04:11:47;19.10;1.00
18317;DHT22;9284;52.298;21.164;2022-08-19T04:14:18;19.20;1.00
18317;DHT22;9284;52.298;21.164;2022-08-19T04:16:49;19.30;1.00
18317;DHT22;9284;52.298;21.164;2022-08-19T04:19:18;19.20;1.00
18317;DHT22;9284;52.298;21.164;2022-08-19T04:21:48;19.30;1.00
18317;DHT22;9284;52.298;21.164;2022-08-19T04:24:17;19.30;1.00
18317;DHT22;9284;52.298;21.164;2022-08-19T04:26:46;19.50;1.00
18317;DHT22;9284;52.298;21.164;2022-08-19T04:29:17;19.40;1.00
18317;DHT22;9284;52.298;21.164;2022-08-19T04:31:49;19.50;1.00
18317;DHT22;9284;52.298;21.164;2022-08-19T04:34:20;19.60;1.00
18317;DHT22;9284;52.298;21.164;2022-08-19T04:36:50;19.60;1.00
18317;DHT22;9284;52.298;21.164;2022-08-19T04:39:22;19.70;1.00
18317;DHT22;9284;52.298;21.164;2022-08-19T04:42:11;19.80;1.00
18317;DHT22;9284;52.298;21.164;2022-08-19T04:44:57;19.90;99.90
18317;DHT22;9284;52.298;21.164;2022-08-19T04:47:27;20.00;1.00
18317;DHT22;9284;52.298;21.164;2022-08-19T04:50:15;20.10;1.00
18317;DHT22;9284;52.298;21.164;2022-08-19T04:52:44;20.30;99.90
18317;DHT22;9284;52.298;21.164;2022-08-19T04:55:13;20.50;99.90
18317;DHT22;9284;52.298;21.164;2022-08-19T04:57:41;20.70;99.90
18317;DHT22;9284;52.298;21.164;2022-08-19T05:00:11;20.80;99.90
18317;DHT22;9284;52.298;21.164;2022-08-19T05:02:40;21.10;1.00
18317;DHT22;9284;52.298;21.164;2022-08-19T05:05:09;21.40;99.90
18317;DHT22;9284;52.298;21.164;2022-08-19T05:07:37;21.60;99.90
18317;DHT22;9284;52.298;21.164;2022-08-19T05:10:07;21.90;99.90
18317;DHT22;9284;52.298;21.164;2022-08-19T05:12:35;22.30;1.00
18317;DHT22;9284;52.298;21.164;2022-08-19T05:15:06;22.50;1.00
18317;DHT22;9284;52.298;21.164;2022-08-19T05:17:35;22.80;1.00
18317;DHT22;9284;52.298;21.164;2022-08-19T05:20:08;23.00;99.90
18317;DHT22;9284;52.298;21.164;2022-08-19T05:22:54;23.30;1.00
18317;DHT22;9284;52.298;21.164;2022-08-19T05:25:23;23.50;99.90
18317;DHT22;9284;52.298;21.164;2022-08-19T05:27:52;23.70;1.00
18317;DHT22;9284;52.298;21.164;2022-08-19T05:30:20;23.70;1.00
18317;DHT22;9284;52.298;21.164;2022-08-19T05:33:09;23.70;99.90
18317;DHT22;9284;52.298;21.164;2022-08-19T05:35:39;23.60;1.00
18317;DHT22;9284;52.298;21.164;2022-08-19T05:38:07;23.60;99.90
18317;DHT22;9284;52.298;21.164;2022-08-19T05:40:36;23.50;1.00
18317;DHT22;9284;52.298;21.164;2022-08-19T05:43:06;23.40;99.90
18317;DHT22;9284;52.298;21.164;2022-08-19T05:45:38;23.40;1.00
18317;DHT22;9284;52.298;21.164;2022-08-19T05:48:07;23.40;1.00
18317;DHT22;9284;52.298;21.164;2022-08-19T05:50:40;23.40;99.90
18317;DHT22;9284;52.298;21.164;2022-08-19T05:53:08;23.50;94.30
18317;DHT22;9284;52.298;21.164;2022-08-19T05:55:37;23.90;1.00
18317;DHT22;9284;52.298;21.164;2022-08-19T05:58:06;24.70;1.00
18317;DHT22;9284;52.298;21.164;2022-08-19T06:00:35;25.40;1.00
18317;DHT22;9284;52.298;21.164;2022-08-19T06:03:04;26.40;99.90
18317;DHT22;9284;52.298;21.164;2022-08-19T06:05:40;26.80;99.90
18317;DHT22;9284;52.298;21.164;2022-08-19T06:08:18;27.10;1.00
18317;DHT22;9284;52.298;21.164;2022-08-19T06:11:12;27.30;99.90
18317;DHT22;9284;52.298;21.164;2022-08-19T06:13:40;28.00;1.00
18317;DHT22;9284;52.298;21.164;2022-08-19T06:16:09;28.00;1.00
18317;DHT22;9284;52.298;21.164;2022-08-19T06:18:37;28.50;1.00
18317;DHT22;9284;52.298;21.164;2022-08-19T06:21:06;29.10;99.90
18317;DHT22;9284;52.298;21.164;2022-08-19T06:23:34;29.10;99.90
18317;DHT22;9284;52.298;21.164;2022-08-19T06:26:03;29.70;99.90
18317;DHT22;9284;52.298;21.164;2022-08-19T06:28:31;29.80;99.90
18317;DHT22;9284;52.298;21.164;2022-08-19T06:31:06;29.60;99.90
18317;DHT22;9284;52.298;21.164;2022-08-19T06:33:34;29.90;99.90
18317;DHT22;9284;52.298;21.164;2022-08-19T06:36:02;30.40;99.90
18317;DHT22;9284;52.298;21.164;2022-08-19T06:38:32;30.00;99.90
18317;DHT22;9284;52.298;21.164;2022-08-19T06:41:02;29.30;99.90
18317;DHT22;9284;52.298;21.164;2022-08-19T06:43:33;28.60;99.90
18317;DHT22;9284;52.298;21.164;2022-08-19T06:46:12;28.40;99.90
18317;DHT22;9284;52.298;21.164;2022-08-19T06:48:41;28.70;1.00
18317;DHT22;9284;52.298;21.164;2022-08-19T06:51:12;28.70;99.90
18317;DHT22;9284;52.298;21.164;2022-08-19T06:53:47;28.90;99.90
18317;DHT22;9284;52.298;21.164;2022-08-19T06:56:18;29.30;99.90
18317;DHT22;9284;52.298;21.164;2022-08-19T06:58:47;29.90;99.90
18317;DHT22;9284;52.298;21.164;2022-08-19T07:01:18;30.30;99.90
18317;DHT22;9284;52.298;21.164;2022-08-19T07:03:46;30.50;93.80
18317;DHT22;9284;52.298;21.164;2022-08-19T07:06:17;30.80;50.20
18317;DHT22;9284;52.298;21.164;2022-08-19T07:09:09;31.10;84.20
18317;DHT22;9284;52.298;21.164;2022-08-19T07:11:38;31.30;22.00
18317;DHT22;9284;52.298;21.164;2022-08-19T07:14:06;31.90;6.70
18317;DHT22;9284;52.298;21.164;2022-08-19T07:16:47;32.00;1.00
18317;DHT22;9284;52.298;21.164;2022-08-19T07:19:16;32.00;1.00
18317;DHT22;9284;52.298;21.164;2022-08-19T07:21:47;32.20;1.00
18317;DHT22;9284;52.298;21.164;2022-08-19T07:24:18;32.10;1.00
18317;DHT22;9284;52.298;21.164;2022-08-19T07:26:46;32.10;1.00
18317;DHT22;9284;52.298;21.164;2022-08-19T07:29:18;32.00;1.00
18317;DHT22;9284;52.298;21.164;2022-08-19T07:31:50;31.90;1.00
18317;DHT22;9284;52.298;21.164;2022-08-19T07:34:20;32.60;1.00
18317;DHT22;9284;52.298;21.164;2022-08-19T07:36:48;33.20;1.00
18317;DHT22;9284;52.298;21.164;2022-08-19T07:39:21;32.80;1.00
18317;DHT22;9284;52.298;21.164;2022-08-19T07:41:49;33.20;1.00
18317;DHT22;9284;52.298;21.164;2022-08-19T07:44:19;32.80;1.00
18317;DHT22;9284;52.298;21.164;2022-08-19T07:46:50;33.00;1.00
18317;DHT22;9284;52.298;21.164;2022-08-19T07:49:20;33.50;1.00
18317;DHT22;9284;52.298;21.164;2022-08-19T07:51:50;33.30;1.00
18317;DHT22;9284;52.298;21.164;2022-08-19T07:54:22;32.90;1.00
18317;DHT22;9284;52.298;21.164;2022-08-19T07:56:50;32.60;1.00
18317;DHT22;9284;52.298;21.164;2022-08-19T07:59:20;32.50;1.00
18317;DHT22;9284;52.298;21.164;2022-08-19T08:01:49;32.70;1.00
18317;DHT22;9284;52.298;21.164;2022-08-19T08:04:18;32.70;1.00
18317;DHT22;9284;52.298;21.164;2022-08-19T08:07:05;32.50;1.00
18317;DHT22;9284;52.298;21.164;2022-08-19T08:09:58;32.60;1.00
18317;DHT22;9284;52.298;21.164;2022-08-19T08:12:32;32.70;1.00
18317;DHT22;9284;52.298;21.164;2022-08-19T08:15:04;32.40;1.00
18317;DHT22;9284;52.298;21.164;2022-08-19T08:17:39;32.40;1.00
18317;DHT22;9284;52.298;21.164;2022-08-19T08:20:18;32.00;1.00
18317;DHT22;9284;52.298;21.164;2022-08-19T08:22:47;31.60;1.00
18317;DHT22;9284;52.298;21.164;2022-08-19T08:25:35;31.30;1.00
18317;DHT22;9284;52.298;21.164;2022-08-19T08:28:05;31.80;1.00
18317;DHT22;9284;52.298;21.164;2022-08-19T08:30:43;31.60;1.00
18317;DHT22;9284;52.298;21.164;2022-08-19T08:33:13;31.60;1.00
18317;DHT22;9284;52.298;21.164;2022-08-19T08:35:42;31.30;1.00
18317;DHT22;9284;52.298;21.164;2022-08-19T08:38:13;31.30;1.00
18317;DHT22;9284;52.298;21.164;2022-08-19T08:40:46;31.60;1.00
18317;DHT22;9284;52.298;21.164;2022-08-19T08:43:24;31.60;1.00
18317;DHT22;9284;52.298;21.164;2022-08-19T08:46:01;31.50;1.00
18317;DHT22;9284;52.298;21.164;2022-08-19T08:48:36;31.30;1.00
18317;DHT22;9284;52.298;21.164;2022-08-19T08:51:09;30.80;1.00
18317;DHT22;9284;52.298;21.164;2022-08-19T08:53:38;30.90;1.00
18317;DHT22;9284;52.298;21.164;2022-08-19T08:56:10;31.00;1.00
18317;DHT22;9284;52.298;21.164;2022-08-19T08:58:51;31.10;1.00
18317;DHT22;9284;52.298;21.164;2022-08-19T09:01:22;31.00;1.00
18317;DHT22;9284;52.298;21.164;2022-08-19T09:03:56;31.10;1.00
18317;DHT22;9284;52.298;21.164;2022-08-19T09:06:37;30.80;1.00
18317;DHT22;9284;52.298;21.164;2022-08-19T09:09:14;31.10;1.00
18317;DHT22;9284;52.298;21.164;2022-08-19T09:11:55;31.30;1.00
18317;DHT22;9284;52.298;21.164;2022-08-19T09:14:34;31.40;1.00
18317;DHT22;9284;52.298;21.164;2022-08-19T09:17:26;31.40;1.00
18317;DHT22;9284;52.298;21.164;2022-08-19T09:20:00;31.50;1.00
18317;DHT22;9284;52.298;21.164;2022-08-19T09:22:35;31.60;1.00
18317;DHT22;9284;52.298;21.164;2022-08-19T09:25:05;31.80;1.00
18317;DHT22;9284;52.298;21.164;2022-08-19T09:27:36;32.20;1.00
18317;DHT22;9284;52.298;21.164;2022-08-19T09:30:21;32.20;1.00
18317;DHT22;9284;52.298;21.164;2022-08-19T09:32:51;32.40;1.00
18317;DHT22;9284;52.298;21.164;2022-08-19T09:35:21;32.40;1.00
18317;DHT22;9284;52.298;21.164;2022-08-19T09:37:50;32.00;1.00
18317;DHT22;9284;52.298;21.164;2022-08-19T09:40:26;31.70;1.00
18317;DHT22;9284;52.298;21.164;2022-08-19T09:42:58;31.40;1.00
18317;DHT22;9284;52.298;21.164;2022-08-19T09:45:27;30.90;1.00
18317;DHT22;9284;52.298;21.164;2022-08-19T09:47:56;31.00;1.00
18317;DHT22;9284;52.298;21.164;2022-08-19T09:50:24;31.00;1.00
18317;DHT22;9284;52.298;21.164;2022-08-19T09:52:52;30.90;1.00
18317;DHT22;9284;52.298;21.164;2022-08-19T09:55:25;31.10;1.00
18317;DHT22;9284;52.298;21.164;2022-08-19T09:58:00;31.00;1.00
18317;DHT22;9284;52.298;21.164;2022-08-19T10:00:29;31.40;1.00
18317;DHT22;9284;52.298;21.164;2022-08-19T10:02:58;31.70;1.00
18317;DHT22;9284;52.298;21.164;2022-08-19T10:05:27;31.60;1.00
18317;DHT22;9284;52.298;21.164;2022-08-19T10:08:15;31.60;1.00
18317;DHT22;9284;52.298;21.164;2022-08-19T10:10:44;31.50;1.00
18317;DHT22;9284;52.298;21.164;2022-08-19T10:13:16;31.50;1.00
18317;DHT22;9284;52.298;21.164;2022-08-19T10:15:45;31.70;1.00
18317;DHT22;9284;52.298;21.164;2022-08-19T10:18:15;31.90;1.00
18317;DHT22;9284;52.298;21.164;2022-08-19T10:20:45;31.60;1.00
18317;DHT22;9284;52.298;21.164;2022-08-19T10:23:18;31.70;1.00
18317;DHT22;9284;52.298;21.164;2022-08-19T10:25:47;31.80;1.00
18317;DHT22;9284;52.298;21.164;2022-08-19T10:28:16;31.80;1.00
18317;DHT22;9284;52.298;21.164;2022-08-19T10:30:46;31.50;1.00
18317;DHT22;9284;52.298;21.164;2022-08-19T10:33:14;31.30;1.00
18317;DHT22;9284;52.298;21.164;2022-08-19T10:36:05;31.50;1.00
18317;DHT22;9284;52.298;21.164;2022-08-19T10:38:33;31.60;1.00
18317;DHT22;9284;52.298;21.164;2022-08-19T10:41:10;31.40;1.00
18317;DHT22;9284;52.298;21.164;2022-08-19T10:43:40;31.60;1.00
18317;DHT22;9284;52.298;21.164;2022-08-19T10:46:09;32.00;1.00
18317;DHT22;9284;52.298;21.164;2022-08-19T10:48:43;32.20;1.00
18317;DHT22;9284;52.298;21.164;2022-08-19T10:51:12;31.90;1.00
18317;DHT22;9284;52.298;21.164;2022-08-19T10:53:58;32.20;1.00
18317;DHT22;9284;52.298;21.164;2022-08-19T10:56:26;32.70;1.00
18317;DHT22;9284;52.298;21.164;2022-08-19T10:59:14;32.80;1.00
18317;DHT22;9284;52.298;21.164;2022-08-19T11:01:44;32.90;1.00
18317;DHT22;9284;52.298;21.164;2022-08-19T11:04:17;33.30;1.00
18317;DHT22;9284;52.298;21.164;2022-08-19T11:06:47;33.10;1.00
18317;DHT22;9284;52.298;21.164;2022-08-19T11:09:16;33.10;1.00
18317;DHT22;9284;52.298;21.164;2022-08-19T11:11:45;33.10;1.00
18317;DHT22;9284;52.298;21.164;2022-08-19T11:14:18;33.10;1.00
18317;DHT22;9284;52.298;21.164;2022-08-19T11:16:48;33.30;1.00
18317;DHT22;9284;52.298;21.164;2022-08-19T11:19:17;33.30;1.00
18317;DHT22;9284;52.298;21.164;2022-08-19T11:21:48;33.30;1.00
18317;DHT22;9284;52.298;21.164;2022-08-19T11:24:18;33.40;1.00
18317;DHT22;9284;52.298;21.164;2022-08-19T11:26:49;33.40;1.00
18317;DHT22;9284;52.298;21.164;2022-08-19T11:29:20;33.30;1.00
18317;DHT22;9284;52.298;21.164;2022-08-19T11:31:49;33.50;1.00
18317;DHT22;9284;52.298;21.164;2022-08-19T11:34:20;33.20;1.00
18317;DHT22;9284;52.298;21.164;2022-08-19T11:36:50;32.90;1.00
18317;DHT22;9284;52.298;21.164;2022-08-19T11:39:21;32.80;1.00
18317;DHT22;9284;52.298;21.164;2022-08-19T11:41:49;32.60;1.00
18317;DHT22;9284;52.298;21.164;2022-08-19T11:44:19;32.40;1.00
18317;DHT22;9284;52.298;21.164;2022-08-19T11:46:47;32.50;1.00
18317;DHT22;9284;52.298;21.164;2022-08-19T11:49:16;32.40;1.00
18317;DHT22;9284;52.298;21.164;2022-08-19T11:51:46;32.40;1.00
18317;DHT22;9284;52.298;21.164;2022-08-19T11:54:15;32.50;1.00
18317;DHT22;9284;52.298;21.164;2022-08-19T11:56:44;32.60;1.00
18317;DHT22;9284;52.298;21.164;2022-08-19T11:59:14;32.80;1.00
18317;DHT22;9284;52.298;21.164;2022-08-19T12:01:44;32.70;1.00
18317;DHT22;9284;52.298;21.164;2022-08-19T12:04:13;32.70;1.00
18317;DHT22;9284;52.298;21.164;2022-08-19T12:06:44;32.60;1.00
18317;DHT22;9284;52.298;21.164;2022-08-19T12:09:12;32.60;1.00
18317;DHT22;9284;52.298;21.164;2022-08-19T12:11:42;32.40;1.00
18317;DHT22;9284;52.298;21.164;2022-08-19T12:14:11;32.10;1.00
18317;DHT22;9284;52.298;21.164;2022-08-19T12:16:44;32.10;1.00
18317;DHT22;9284;52.298;21.164;2022-08-19T12:19:18;32.10;1.00
18317;DHT22;9284;52.298;21.164;2022-08-19T12:21:49;32.10;1.00
18317;DHT22;9284;52.298;21.164;2022-08-19T12:24:17;32.10;1.00
18317;DHT22;9284;52.298;21.164;2022-08-19T12:26:50;32.20;1.00
18317;DHT22;9284;52.298;21.164;2022-08-19T12:29:21;32.20;1.00
18317;DHT22;9284;52.298;21.164;2022-08-19T12:31:57;32.20;1.00
18317;DHT22;9284;52.298;21.164;2022-08-19T12:34:31;32.20;1.00
18317;DHT22;9284;52.298;21.164;2022-08-19T12:37:02;32.20;1.00
18317;DHT22;9284;52.298;21.164;2022-08-19T12:39:34;32.20;1.00
18317;DHT22;9284;52.298;21.164;2022-08-19T12:42:03;32.30;1.00
18317;DHT22;9284;52.298;21.164;2022-08-19T12:44:32;32.30;1.00
18317;DHT22;9284;52.298;21.164;2022-08-19T12:47:03;32.20;1.00
18317;DHT22;9284;52.298;21.164;2022-08-19T12:49:36;32.10;1.00
18317;DHT22;9284;52.298;21.164;2022-08-19T12:52:22;32.00;1.00
18317;DHT22;9284;52.298;21.164;2022-08-19T12:54:52;32.00;1.00
18317;DHT22;9284;52.298;21.164;2022-08-19T12:57:21;32.00;1.00
18317;DHT22;9284;52.298;21.164;2022-08-19T13:00:00;32.10;1.00
18317;DHT22;9284;52.298;21.164;2022-08-19T13:05:06;32.20;1.00
18317;DHT22;9284;52.298;21.164;2022-08-19T13:07:35;32.20;1.00
18317;DHT22;9284;52.298;21.164;2022-08-19T13:10:05;32.20;1.00
18317;DHT22;9284;52.298;21.164;2022-08-19T13:12:34;32.40;1.00
18317;DHT22;9284;52.298;21.164;2022-08-19T13:15:02;32.50;1.00
18317;DHT22;9284;52.298;21.164;2022-08-19T13:17:39;32.60;1.00
18317;DHT22;9284;52.298;21.164;2022-08-19T13:20:09;32.60;1.00
18317;DHT22;9284;52.298;21.164;2022-08-19T13:22:38;32.50;1.00
18317;DHT22;9284;52.298;21.164;2022-08-19T13:25:08;32.40;1.00
18317;DHT22;9284;52.298;21.164;2022-08-19T13:27:37;32.40;1.00
18317;DHT22;9284;52.298;21.164;2022-08-19T13:30:07;32.40;1.00
18317;DHT22;9284;52.298;21.164;2022-08-19T13:32:54;32.40;1.00
18317;DHT22;9284;52.298;21.164;2022-08-19T13:35:45;32.30;1.00
18317;DHT22;9284;52.298;21.164;2022-08-19T13:38:16;32.40;1.00
18317;DHT22;9284;52.298;21.164;2022-08-19T13:40:44;32.20;1.00
18317;DHT22;9284;52.298;21.164;2022-08-19T13:43:13;32.10;1.00
18317;DHT22;9284;52.298;21.164;2022-08-19T13:45:50;32.10;1.00
18317;DHT22;9284;52.298;21.164;2022-08-19T13:48:21;32.00;1.00
18317;DHT22;9284;52.298;21.164;2022-08-19T13:50:50;32.00;1.00
18317;DHT22;9284;52.298;21.164;2022-08-19T13:53:18;32.00;1.00
18317;DHT22;9284;52.298;21.164;2022-08-19T13:55:46;32.00;1.00
18317;DHT22;9284;52.298;21.164;2022-08-19T13:58:16;32.10;1.00
18317;DHT22;9284;52.298;21.164;2022-08-19T14:00:45;32.00;1.00
18317;DHT22;9284;52.298;21.164;2022-08-19T14:03:15;32.00;1.00
18317;DHT22;9284;52.298;21.164;2022-08-19T14:05:44;32.00;1.00
18317;DHT22;9284;52.298;21.164;2022-08-19T14:08:13;32.00;1.00
18317;DHT22;9284;52.298;21.164;2022-08-19T14:10:42;32.00;1.00
18317;DHT22;9284;52.298;21.164;2022-08-19T14:13:14;31.90;1.00
18317;DHT22;9284;52.298;21.164;2022-08-19T14:15:42;31.80;1.00
18317;DHT22;9284;52.298;21.164;2022-08-19T14:18:11;31.80;1.00
18317;DHT22;9284;52.298;21.164;2022-08-19T14:20:39;31.80;1.00
18317;DHT22;9284;52.298;21.164;2022-08-19T14:23:08;31.80;1.00
18317;DHT22;9284;52.298;21.164;2022-08-19T14:25:37;31.80;1.00
18317;DHT22;9284;52.298;21.164;2022-08-19T14:28:05;31.80;1.00
18317;DHT22;9284;52.298;21.164;2022-08-19T14:30:36;31.70;1.00
18317;DHT22;9284;52.298;21.164;2022-08-19T14:33:06;31.70;1.00
18317;DHT22;9284;52.298;21.164;2022-08-19T14:35:35;31.70;1.00
18317;DHT22;9284;52.298;21.164;2022-08-19T14:38:05;31.70;1.00
18317;DHT22;9284;52.298;21.164;2022-08-19T14:40:36;31.70;1.00
18317;DHT22;9284;52.298;21.164;2022-08-19T14:43:06;31.60;1.00
18317;DHT22;9284;52.298;21.164;2022-08-19T14:45:35;31.60;1.00
18317;DHT22;9284;52.298;21.164;2022-08-19T14:48:07;31.60;1.00
18317;DHT22;9284;52.298;21.164;2022-08-19T14:50:45;31.60;1.00
18317;DHT22;9284;52.298;21.164;2022-08-19T14:53:13;31.50;1.00
18317;DHT22;9284;52.298;21.164;2022-08-19T14:55:46;31.50;1.00
18317;DHT22;9284;52.298;21.164;2022-08-19T14:58:14;31.50;1.00
18317;DHT22;9284;52.298;21.164;2022-08-19T15:00:57;31.50;1.00
18317;DHT22;9284;52.298;21.164;2022-08-19T15:03:25;31.50;1.00
18317;DHT22;9284;52.298;21.164;2022-08-19T15:05:54;31.50;1.00
18317;DHT22;9284;52.298;21.164;2022-08-19T15:08:23;31.50;1.00
18317;DHT22;9284;52.298;21.164;2022-08-19T15:10:53;31.50;1.00
18317;DHT22;9284;52.298;21.164;2022-08-19T15:13:21;31.40;1.00
18317;DHT22;9284;52.298;21.164;2022-08-19T15:15:51;31.40;1.00
18317;DHT22;9284;52.298;21.164;2022-08-19T15:18:20;31.30;1.00
18317;DHT22;9284;52.298;21.164;2022-08-19T15:20:48;31.20;1.00
18317;DHT22;9284;52.298;21.164;2022-08-19T15:23:18;31.20;1.00
18317;DHT22;9284;52.298;21.164;2022-08-19T15:25:47;31.20;1.00
18317;DHT22;9284;52.298;21.164;2022-08-19T15:28:20;31.10;1.00
18317;DHT22;9284;52.298;21.164;2022-08-19T15:30:48;31.10;1.00
18317;DHT22;9284;52.298;21.164;2022-08-19T15:33:18;31.10;1.00
18317;DHT22;9284;52.298;21.164;2022-08-19T15:35:47;31.10;1.00
18317;DHT22;9284;52.298;21.164;2022-08-19T15:38:18;31.00;1.00
18317;DHT22;9284;52.298;21.164;2022-08-19T15:40:48;31.00;1.00
18317;DHT22;9284;52.298;21.164;2022-08-19T15:43:19;30.90;1.00
18317;DHT22;9284;52.298;21.164;2022-08-19T15:45:49;30.80;1.00
18317;DHT22;9284;52.298;21.164;2022-08-19T15:48:17;30.70;1.00
18317;DHT22;9284;52.298;21.164;2022-08-19T15:50:45;30.70;1.00
18317;DHT22;9284;52.298;21.164;2022-08-19T15:53:13;30.70;1.00
18317;DHT22;9284;52.298;21.164;2022-08-19T15:55:43;30.70;1.00
18317;DHT22;9284;52.298;21.164;2022-08-19T15:58:14;30.60;1.00
18317;DHT22;9284;52.298;21.164;2022-08-19T16:01:04;30.60;1.00
18317;DHT22;9284;52.298;21.164;2022-08-19T16:03:54;30.50;1.00
18317;DHT22;9284;52.298;21.164;2022-08-19T16:06:45;30.40;1.00
18317;DHT22;9284;52.298;21.164;2022-08-19T16:09:15;30.30;1.00
18317;DHT22;9284;52.298;21.164;2022-08-19T16:11:44;30.20;1.00
18317;DHT22;9284;52.298;21.164;2022-08-19T16:14:23;30.20;1.00
18317;DHT22;9284;52.298;21.164;2022-08-19T16:16:53;30.20;1.00
18317;DHT22;9284;52.298;21.164;2022-08-19T16:19:23;30.10;1.00
18317;DHT22;9284;52.298;21.164;2022-08-19T16:21:53;29.90;1.00
18317;DHT22;9284;52.298;21.164;2022-08-19T16:24:24;29.90;1.00
18317;DHT22;9284;52.298;21.164;2022-08-19T16:26:53;29.90;1.00
18317;DHT22;9284;52.298;21.164;2022-08-19T16:29:22;29.80;1.00
18317;DHT22;9284;52.298;21.164;2022-08-19T16:32:03;29.70;1.00
18317;DHT22;9284;52.298;21.164;2022-08-19T16:34:32;29.60;1.00
18317;DHT22;9284;52.298;21.164;2022-08-19T16:37:00;29.60;1.00
18317;DHT22;9284;52.298;21.164;2022-08-19T16:39:29;29.50;1.00
18317;DHT22;9284;52.298;21.164;2022-08-19T16:41:57;29.40;1.00
18317;DHT22;9284;52.298;21.164;2022-08-19T16:44:26;29.30;1.00
18317;DHT22;9284;52.298;21.164;2022-08-19T16:46:55;29.20;1.00
18317;DHT22;9284;52.298;21.164;2022-08-19T16:49:28;29.10;1.00
18317;DHT22;9284;52.298;21.164;2022-08-19T16:52:17;29.00;1.00
18317;DHT22;9284;52.298;21.164;2022-08-19T16:54:46;29.00;1.00
18317;DHT22;9284;52.298;21.164;2022-08-19T16:57:14;28.80;1.00
18317;DHT22;9284;52.298;21.164;2022-08-19T16:59:42;28.70;1.00
18317;DHT22;9284;52.298;21.164;2022-08-19T17:02:15;28.70;1.00
18317;DHT22;9284;52.298;21.164;2022-08-19T17:04:45;28.60;1.00
18317;DHT22;9284;52.298;21.164;2022-08-19T17:07:25;28.50;1.00
18317;DHT22;9284;52.298;21.164;2022-08-19T17:09:53;28.40;1.00
18317;DHT22;9284;52.298;21.164;2022-08-19T17:12:22;28.30;1.00
18317;DHT22;9284;52.298;21.164;2022-08-19T17:14:57;28.20;1.00
18317;DHT22;9284;52.298;21.164;2022-08-19T17:17:26;28.10;1.00
18317;DHT22;9284;52.298;21.164;2022-08-19T17:19:56;28.10;1.00
18317;DHT22;9284;52.298;21.164;2022-08-19T17:22:26;28.00;1.00
18317;DHT22;9284;52.298;21.164;2022-08-19T17:24:54;27.90;1.00
18317;DHT22;9284;52.298;21.164;2022-08-19T17:27:25;27.80;1.00
18317;DHT22;9284;52.298;21.164;2022-08-19T17:29:59;27.70;1.00
18317;DHT22;9284;52.298;21.164;2022-08-19T17:32:28;27.60;1.00
18317;DHT22;9284;52.298;21.164;2022-08-19T17:35:02;27.50;1.00
18317;DHT22;9284;52.298;21.164;2022-08-19T17:37:31;27.50;1.00
18317;DHT22;9284;52.298;21.164;2022-08-19T17:40:00;27.30;1.00
18317;DHT22;9284;52.298;21.164;2022-08-19T17:42:29;27.20;13.10
18317;DHT22;9284;52.298;21.164;2022-08-19T17:44:57;27.10;18.10
18317;DHT22;9284;52.298;21.164;2022-08-19T17:47:26;27.00;40.60
18317;DHT22;9284;52.298;21.164;2022-08-19T17:49:54;27.10;58.60
18317;DHT22;9284;52.298;21.164;2022-08-19T17:52:24;26.90;96.20
18317;DHT22;9284;52.298;21.164;2022-08-19T17:54:52;26.80;99.90
18317;DHT22;9284;52.298;21.164;2022-08-19T17:57:21;26.80;99.90
18317;DHT22;9284;52.298;21.164;2022-08-19T17:59:49;26.70;99.90
18317;DHT22;9284;52.298;21.164;2022-08-19T18:02:18;26.70;99.90
18317;DHT22;9284;52.298;21.164;2022-08-19T18:04:48;26.60;99.90
18317;DHT22;9284;52.298;21.164;2022-08-19T18:07:16;26.50;99.90
18317;DHT22;9284;52.298;21.164;2022-08-19T18:09:49;26.50;99.90
18317;DHT22;9284;52.298;21.164;2022-08-19T18:12:23;26.50;99.90
18317;DHT22;9284;52.298;21.164;2022-08-19T18:14:52;26.40;99.90
18317;DHT22;9284;52.298;21.164;2022-08-19T18:17:20;26.40;99.90
18317;DHT22;9284;52.298;21.164;2022-08-19T18:19:50;26.30;99.90
18317;DHT22;9284;52.298;21.164;2022-08-19T18:22:24;26.20;99.90
18317;DHT22;9284;52.298;21.164;2022-08-19T18:24:54;26.20;99.90
18317;DHT22;9284;52.298;21.164;2022-08-19T18:27:24;26.10;1.00
18317;DHT22;9284;52.298;21.164;2022-08-19T18:29:53;26.00;1.00
18317;DHT22;9284;52.298;21.164;2022-08-19T18:32:27;25.90;1.00
18317;DHT22;9284;52.298;21.164;2022-08-19T18:34:58;25.80;3.90
18317;DHT22;9284;52.298;21.164;2022-08-19T18:37:26;25.70;1.00
18317;DHT22;9284;52.298;21.164;2022-08-19T18:39:56;25.70;1.00
18317;DHT22;9284;52.298;21.164;2022-08-19T18:42:43;25.60;24.00
18317;DHT22;9284;52.298;21.164;2022-08-19T18:45:44;25.60;99.90
18317;DHT22;9284;52.298;21.164;2022-08-19T18:48:33;25.40;99.90
18317;DHT22;9284;52.298;21.164;2022-08-19T18:51:19;25.40;99.90
18317;DHT22;9284;52.298;21.164;2022-08-19T18:53:54;25.30;99.90
18317;DHT22;9284;52.298;21.164;2022-08-19T18:56:27;25.30;99.90
18317;DHT22;9284;52.298;21.164;2022-08-19T18:58:58;25.30;1.00
18317;DHT22;9284;52.298;21.164;2022-08-19T19:01:29;25.10;1.00
18317;DHT22;9284;52.298;21.164;2022-08-19T19:03:59;25.10;1.00
18317;DHT22;9284;52.298;21.164;2022-08-19T19:06:30;25.00;1.00
18317;DHT22;9284;52.298;21.164;2022-08-19T19:09:00;25.00;1.00
18317;DHT22;9284;52.298;21.164;2022-08-19T19:11:33;24.90;99.90
18317;DHT22;9284;52.298;21.164;2022-08-19T19:14:04;24.80;99.90
18317;DHT22;9284;52.298;21.164;2022-08-19T19:16:48;24.90;1.00
18317;DHT22;9284;52.298;21.164;2022-08-19T19:19:17;24.80;1.00
18317;DHT22;9284;52.298;21.164;2022-08-19T19:21:49;24.70;1.00
18317;DHT22;9284;52.298;21.164;2022-08-19T19:24:21;24.80;99.90
18317;DHT22;9284;52.298;21.164;2022-08-19T19:26:51;24.70;1.00
18317;DHT22;9284;52.298;21.164;2022-08-19T19:29:20;24.70;1.00